createdAt,value
2023-04-03T00:02:10.246Z,4.78
2023-04-03T00:04:36.883Z,5.05
2023-04-03T00:07:03.382Z,5.00
2023-04-03T00:09:29.781Z,4.97
2023-04-03T00:11:56.188Z,5.18
2023-04-03T00:14:22.953Z,5.38
2023-04-03T00:16:49.484Z,5.13
2023-04-03T00:19:16.313Z,5.22
2023-04-03T00:21:42.707Z,4.70
2023-04-03T00:24:09.100Z,4.65
2023-04-03T00:26:35.579Z,4.68
2023-04-03T00:29:01.992Z,4.72
2023-04-03T00:31:28.457Z,4.20
2023-04-03T00:33:55.007Z,4.55
2023-04-03T00:36:21.537Z,4.35
2023-04-03T00:38:48.704Z,3.72
2023-04-03T00:41:15.322Z,4.60
2023-04-03T00:43:41.871Z,4.80
2023-04-03T00:46:08.669Z,4.75
2023-04-03T00:48:42.792Z,4.03
2023-04-03T00:51:14.641Z,4.57
2023-04-03T00:53:46.834Z,4.43
2023-04-03T00:56:16.359Z,4.55
2023-04-03T00:59:02.298Z,4.43
2023-04-03T01:01:30.589Z,4.50
2023-04-03T01:03:57.308Z,5.15
2023-04-03T01:06:29.405Z,5.00
2023-04-03T01:09:01.544Z,5.13
2023-04-03T01:11:28.179Z,4.68
2023-04-03T01:13:54.818Z,4.50
2023-04-03T01:16:21.340Z,4.43
2023-04-03T01:18:47.925Z,4.38
2023-04-03T01:21:32.526Z,4.63
2023-04-03T01:24:33.426Z,4.30
2023-04-03T01:29:28.406Z,4.28
2023-04-03T01:32:05.393Z,4.65
2023-04-03T01:34:31.905Z,4.18
2023-04-03T01:36:59.366Z,4.15
2023-04-03T01:39:26.049Z,4.05
2023-04-03T01:41:52.538Z,4.20
2023-04-03T01:44:35.368Z,4.50
2023-04-03T01:47:01.895Z,4.15
2023-04-03T01:49:29.421Z,4.10
2023-04-03T01:51:56.429Z,4.32
2023-04-03T01:54:22.884Z,4.45
2023-04-03T01:56:49.363Z,4.03
2023-04-03T01:59:17.975Z,4.50
2023-04-03T02:01:46.104Z,4.03
2023-04-03T02:04:13.315Z,4.68
2023-04-03T02:06:39.780Z,4.20
2023-04-03T02:09:06.433Z,3.92
2023-04-03T02:11:32.880Z,4.30
2023-04-03T02:13:59.303Z,4.57
2023-04-03T02:16:26.057Z,4.10
2023-04-03T02:18:52.595Z,4.38
2023-04-03T02:21:19.098Z,4.50
2023-04-03T02:23:45.595Z,4.07
2023-04-03T02:26:14.926Z,4.40
2023-04-03T02:28:42.111Z,4.13
2023-04-03T02:31:09.860Z,3.70
2023-04-03T02:33:38.618Z,3.60
2023-04-03T02:36:08.882Z,3.35
2023-04-03T02:38:36.213Z,3.30
2023-04-03T02:41:08.824Z,3.47
2023-04-03T02:43:35.845Z,3.45
2023-04-03T02:46:03.883Z,3.40
2023-04-03T02:48:30.622Z,4.03
2023-04-03T02:50:57.085Z,3.42
2023-04-03T02:53:23.931Z,3.58
2023-04-03T02:55:51.243Z,4.13
2023-04-03T02:58:17.700Z,4.13
2023-04-03T03:00:44.528Z,4.05
2023-04-03T03:03:11.255Z,3.85
2023-04-03T03:05:37.678Z,4.80
2023-04-03T03:08:04.315Z,3.40
2023-04-03T03:10:31.254Z,3.58
2023-04-03T03:12:57.675Z,3.75
2023-04-03T03:15:24.201Z,4.18
2023-04-03T03:17:50.600Z,3.72
2023-04-03T03:20:17.336Z,3.20
2023-04-03T03:22:44.902Z,3.35
2023-04-03T03:25:11.365Z,3.85
2023-04-03T03:27:37.775Z,3.08
2023-04-03T03:30:05.988Z,3.03
2023-04-03T03:32:33.075Z,3.10
2023-04-03T03:34:59.510Z,3.20
2023-04-03T03:37:25.915Z,3.13
2023-04-03T03:39:52.488Z,3.22
2023-04-03T03:42:18.919Z,4.05
2023-04-03T03:44:45.695Z,3.72
2023-04-03T03:47:12.220Z,3.40
2023-04-03T03:49:39.352Z,3.58
2023-04-03T03:52:05.895Z,3.42
2023-04-03T03:54:32.368Z,4.63
2023-04-03T03:56:58.908Z,2.90
2023-04-03T03:59:25.931Z,3.08
2023-04-03T04:01:52.945Z,3.83
2023-04-03T04:04:19.950Z,3.53
2023-04-03T04:06:46.956Z,2.83
2023-04-03T04:09:13.777Z,3.72
2023-04-03T04:11:41.297Z,3.85
2023-04-03T04:14:11.400Z,3.50
2023-04-03T04:16:38.360Z,3.33
2023-04-03T04:19:10.862Z,3.53
2023-04-03T04:21:40.235Z,3.63
2023-04-03T04:24:07.166Z,2.90
2023-04-03T04:26:33.655Z,3.55
2023-04-03T04:29:01.287Z,3.42
2023-04-03T04:31:28.467Z,3.22
2023-04-03T04:33:55.184Z,3.17
2023-04-03T04:36:21.979Z,2.75
2023-04-03T04:38:48.970Z,3.15
2023-04-03T04:41:16.907Z,2.90
2023-04-03T04:43:44.406Z,2.63
2023-04-03T04:46:13.043Z,2.80
2023-04-03T04:48:45.402Z,3.63
2023-04-03T04:51:12.936Z,2.83
2023-04-03T04:53:39.780Z,3.95
2023-04-03T04:56:07.814Z,2.90
2023-04-03T04:58:36.496Z,3.53
2023-04-03T05:01:06.393Z,3.08
2023-04-03T05:03:35.589Z,3.45
2023-04-03T05:06:02.183Z,3.55
2023-04-03T05:08:31.869Z,3.40
2023-04-03T05:10:58.621Z,3.53
2023-04-03T05:13:27.037Z,3.15
2023-04-03T05:15:54.474Z,3.53
2023-04-03T05:18:21.225Z,3.40
2023-04-03T05:20:51.224Z,3.05
2023-04-03T05:23:19.282Z,3.20
2023-04-03T05:25:47.925Z,3.20
2023-04-03T05:28:14.771Z,3.55
2023-04-03T05:30:41.624Z,3.72
2023-04-03T05:33:08.952Z,4.35
2023-04-03T05:35:42.718Z,3.35
2023-04-03T05:38:12.491Z,3.85
2023-04-03T05:40:38.935Z,4.18
2023-04-03T05:43:06.481Z,3.97
2023-04-03T05:45:35.946Z,3.95
2023-04-03T05:48:02.571Z,3.88
2023-04-03T05:50:31.124Z,3.22
2023-04-03T05:52:59.953Z,4.03
2023-04-03T05:55:28.789Z,4.00
2023-04-03T05:57:55.528Z,3.40
2023-04-03T06:00:22.631Z,4.03
2023-04-03T06:02:58.476Z,3.33
2023-04-03T06:05:25.803Z,3.35
2023-04-03T06:07:52.373Z,3.17
2023-04-03T06:10:19.189Z,3.30
2023-04-03T06:12:46.206Z,3.58
2023-04-03T06:15:12.782Z,3.17
2023-04-03T06:17:40.768Z,3.50
2023-04-03T06:20:08.732Z,3.65
2023-04-03T06:22:35.492Z,3.80
2023-04-03T06:25:02.457Z,4.43
2023-04-03T06:27:28.843Z,3.58
2023-04-03T06:29:55.669Z,3.60
2023-04-03T06:32:22.058Z,3.20
2023-04-03T06:34:48.477Z,3.13
2023-04-03T06:37:19.482Z,3.58
2023-04-03T06:39:46.212Z,4.72
2023-04-03T06:42:12.613Z,4.13
2023-04-03T06:44:47.713Z,4.50
2023-04-03T06:47:16.066Z,5.70
2023-04-03T06:49:43.669Z,3.50
2023-04-03T06:52:10.751Z,2.92
2023-04-03T06:54:37.144Z,3.75
2023-04-03T06:57:03.727Z,4.53
2023-04-03T06:59:30.371Z,3.42
2023-04-03T07:01:57.197Z,3.40
2023-04-03T07:04:23.646Z,4.10
2023-04-03T07:06:50.098Z,3.63
2023-04-03T07:09:16.560Z,3.42
2023-04-03T07:11:42.964Z,3.50
2023-04-03T07:14:09.393Z,3.95
2023-04-03T07:16:36.240Z,3.55
2023-04-03T07:19:03.812Z,5.53
2023-04-03T07:21:30.383Z,5.60
2023-04-03T07:23:56.795Z,5.10
2023-04-03T07:26:23.618Z,4.80
2023-04-03T07:28:50.819Z,4.38
2023-04-03T07:31:19.260Z,3.58
2023-04-03T07:33:46.161Z,2.92
2023-04-03T07:36:17.729Z,3.95
2023-04-03T07:38:44.318Z,4.20
2023-04-03T07:41:18.594Z,3.67
2023-04-03T07:43:46.087Z,3.50
2023-04-03T07:46:13.134Z,3.67
2023-04-03T07:48:39.817Z,3.70
2023-04-03T07:51:06.576Z,4.57
2023-04-03T07:53:33.848Z,3.60
2023-04-03T07:56:00.988Z,3.80
2023-04-03T07:58:27.766Z,3.38
2023-04-03T08:00:54.297Z,5.28
2023-04-03T08:03:21.181Z,4.15
2023-04-03T08:05:49.185Z,3.70
2023-04-03T08:08:22.212Z,3.33
2023-04-03T08:10:53.668Z,4.10
2023-04-03T08:15:47.608Z,3.38
2023-04-03T08:18:16.169Z,4.22
2023-04-03T08:20:42.831Z,4.90
2023-04-03T08:23:09.773Z,3.92
2023-04-03T08:25:42.380Z,4.25
2023-04-03T08:28:09.688Z,3.90
2023-04-03T08:30:37.089Z,4.00
2023-04-03T08:33:03.883Z,3.90
2023-04-03T08:35:30.632Z,4.72
2023-04-03T08:37:57.501Z,4.18
2023-04-03T08:40:24.533Z,4.05
2023-04-03T08:43:28.629Z,4.15
2023-04-03T08:45:58.487Z,3.83
2023-04-03T08:48:30.529Z,4.55
2023-04-03T08:51:05.402Z,3.90
2023-04-03T08:53:36.412Z,3.70
2023-04-03T08:56:14.597Z,3.67
2023-04-03T08:58:48.271Z,3.45
2023-04-03T09:01:26.908Z,4.47
2023-04-03T09:03:53.419Z,4.03
2023-04-03T09:06:23.443Z,4.28
2023-04-03T09:09:08.025Z,4.22
2023-04-03T09:11:47.147Z,3.33
2023-04-03T09:14:33.102Z,3.58
2023-04-03T09:17:20.313Z,4.60
2023-04-03T09:20:12.655Z,3.65
2023-04-03T09:22:49.775Z,4.00
2023-04-03T09:25:23.081Z,3.55
2023-04-03T09:27:51.671Z,3.15
2023-04-03T09:30:28.428Z,3.55
2023-04-03T09:32:57.157Z,3.60
2023-04-03T09:35:47.543Z,3.30
2023-04-03T09:38:15.036Z,3.38
2023-04-03T09:40:48.047Z,6.53
2023-04-03T09:43:28.163Z,6.55
2023-04-03T09:45:56.564Z,6.30
2023-04-03T09:48:26.200Z,6.43
2023-04-03T09:51:00.129Z,5.32
2023-04-03T09:53:37.536Z,5.22
2023-04-03T09:56:26.634Z,4.07
2023-04-03T09:59:13.776Z,2.97
2023-04-03T10:01:43.346Z,3.50
2023-04-03T10:04:11.835Z,2.88
2023-04-03T10:06:49.366Z,2.90
2023-04-03T10:09:26.420Z,3.00
2023-04-03T10:12:13.077Z,2.72
2023-04-03T10:14:41.461Z,3.20
2023-04-03T10:17:50.288Z,3.20
2023-04-03T10:20:48.089Z,2.28
2023-04-03T10:23:21.399Z,2.83
2023-04-03T10:26:06.617Z,3.00
2023-04-03T10:28:58.214Z,2.83
2023-04-03T10:34:16.897Z,2.50
2023-04-03T10:36:46.091Z,3.10
2023-04-03T10:39:28.222Z,2.78
2023-04-03T10:42:19.113Z,3.25
2023-04-03T10:44:59.480Z,3.97
2023-04-03T10:47:34.651Z,3.67
2023-04-03T10:50:39.382Z,3.55
2023-04-03T10:53:15.018Z,4.22
2023-04-03T10:55:54.595Z,3.90
2023-04-03T10:58:55.553Z,3.40
2023-04-03T11:01:32.380Z,3.92
2023-04-03T11:04:01.862Z,7.10
2023-04-03T11:06:43.559Z,4.75
2023-04-03T11:09:32.852Z,6.20
2023-04-03T11:12:07.018Z,3.50
2023-04-03T11:14:36.576Z,3.08
2023-04-03T11:17:22.899Z,3.28
2023-04-03T11:20:07.909Z,3.28
2023-04-03T11:22:39.551Z,3.00
2023-04-03T11:25:11.575Z,2.83
2023-04-03T11:27:57.664Z,2.72
2023-04-03T11:31:01.763Z,3.03
2023-04-03T11:34:06.100Z,2.70
2023-04-03T11:36:39.203Z,3.40
2023-04-03T11:39:21.375Z,3.80
2023-04-03T11:41:48.421Z,3.22
2023-04-03T11:44:37.324Z,3.47
2023-04-03T11:47:05.609Z,2.97
2023-04-03T11:50:04.445Z,3.50
2023-04-03T11:52:42.234Z,3.10
2023-04-03T11:55:22.213Z,3.47
2023-04-03T11:58:03.848Z,2.85
2023-04-03T12:00:48.552Z,2.83
2023-04-03T12:03:31.799Z,2.85
2023-04-03T12:06:07.633Z,2.72
2023-04-03T12:08:34.019Z,2.70
2023-04-03T12:11:09.424Z,2.60
2023-04-03T12:13:37.657Z,3.25
2023-04-03T12:16:06.496Z,3.22
2023-04-03T12:18:54.662Z,2.45
2023-04-03T12:21:22.609Z,2.70
2023-04-03T12:24:09.673Z,2.42
2023-04-03T12:26:48.679Z,2.47
2023-04-03T12:29:24.560Z,2.47
2023-04-03T12:32:00.045Z,2.22
2023-04-03T12:34:45.681Z,2.50
2023-04-03T12:37:49.324Z,2.80
2023-04-03T12:40:43.217Z,3.05
2023-04-03T12:43:14.412Z,2.60
2023-04-03T12:45:47.402Z,2.35
2023-04-03T12:48:18.051Z,2.85
2023-04-03T12:50:47.501Z,3.28
2023-04-03T12:53:19.214Z,2.72
2023-04-03T12:55:46.407Z,3.00
2023-04-03T12:58:27.098Z,2.22
2023-04-03T13:01:09.939Z,2.92
2023-04-03T13:03:40.122Z,3.35
2023-04-03T13:06:06.761Z,3.30
2023-04-03T13:08:33.425Z,2.90
2023-04-03T13:11:08.847Z,3.13
2023-04-03T13:13:35.323Z,2.88
2023-04-03T13:16:10.127Z,2.88
2023-04-03T13:18:38.063Z,2.85
2023-04-03T13:21:22.370Z,2.50
2023-04-03T13:23:55.339Z,2.47
2023-04-03T13:26:30.183Z,2.83
2023-04-03T13:29:02.564Z,3.00
2023-04-03T13:31:32.911Z,2.92
2023-04-03T13:34:04.591Z,2.87
2023-04-03T13:36:35.079Z,2.55
2023-04-03T13:39:13.567Z,2.85
2023-04-03T13:41:42.666Z,2.92
2023-04-03T13:44:24.076Z,2.97
2023-04-03T13:49:46.671Z,2.65
2023-04-03T13:52:23.328Z,2.80
2023-04-03T13:54:55.892Z,2.75
2023-04-03T13:57:22.767Z,3.70
2023-04-03T13:59:50.821Z,3.13
2023-04-03T14:02:23.288Z,3.33
2023-04-03T14:04:59.289Z,2.53
2023-04-03T14:07:26.150Z,2.85
2023-04-03T14:09:53.176Z,2.90
2023-04-03T14:12:31.843Z,2.65
2023-04-03T14:15:03.995Z,2.80
2023-04-03T14:17:30.716Z,3.35
2023-04-03T14:19:58.574Z,2.72
2023-04-03T14:22:29.484Z,3.30
2023-04-03T14:24:57.318Z,3.67
2023-04-03T14:27:28.108Z,2.75
2023-04-03T14:29:57.250Z,2.53
2023-04-03T14:32:26.048Z,2.90
2023-04-03T14:34:53.351Z,2.25
2023-04-03T14:37:27.939Z,3.03
2023-04-03T14:39:54.812Z,2.75
2023-04-03T14:42:25.415Z,5.75
2023-04-03T14:44:52.711Z,2.80
2023-04-03T14:47:31.254Z,2.92
2023-04-03T14:50:04.519Z,2.95
2023-04-03T14:52:34.419Z,4.22
2023-04-03T14:55:02.398Z,5.82
2023-04-03T14:57:30.560Z,2.75
2023-04-03T14:59:57.527Z,3.55
2023-04-03T15:02:36.230Z,2.90
2023-04-03T15:05:06.379Z,2.78
2023-04-03T15:07:47.508Z,3.00
2023-04-03T15:10:26.301Z,2.55
2023-04-03T15:12:53.666Z,2.50
2023-04-03T15:15:22.542Z,2.80
2023-04-03T15:17:54.845Z,7.93
2023-04-03T15:20:26.189Z,3.55
2023-04-03T15:22:53.169Z,2.88
2023-04-03T15:25:19.905Z,2.70
2023-04-03T15:27:46.368Z,3.33
2023-04-03T15:30:16.547Z,3.20
2023-04-03T15:32:43.057Z,2.60
2023-04-03T15:35:09.861Z,3.10
2023-04-03T15:37:36.579Z,2.63
2023-04-03T15:40:04.820Z,2.83
2023-04-03T15:42:31.271Z,3.10
2023-04-03T15:44:57.751Z,3.17
2023-04-03T15:47:25.693Z,3.63
2023-04-03T15:49:52.364Z,3.15
2023-04-03T15:52:18.761Z,2.97
2023-04-03T15:54:45.149Z,2.78
2023-04-03T15:57:11.634Z,3.15
2023-04-03T15:59:38.088Z,2.58
2023-04-03T16:02:08.483Z,2.45
2023-04-03T16:04:35.449Z,2.73
2023-04-03T16:07:03.415Z,5.60
2023-04-03T16:09:31.183Z,3.72
2023-04-03T16:11:57.696Z,3.30
2023-04-03T16:14:24.133Z,2.85
2023-04-03T16:16:50.670Z,2.67
2023-04-03T16:19:17.245Z,3.50
2023-04-03T16:21:43.720Z,2.50
2023-04-03T16:24:10.344Z,2.83
2023-04-03T16:26:36.783Z,2.95
2023-04-03T16:29:03.306Z,3.17
2023-04-03T16:31:30.108Z,3.08
2023-04-03T16:33:57.400Z,2.60
2023-04-03T16:36:25.592Z,2.95
2023-04-03T16:38:52.312Z,3.85
2023-04-03T16:41:18.802Z,3.20
2023-04-03T16:43:45.231Z,5.55
2023-04-03T16:46:11.890Z,3.97
2023-04-03T16:48:38.490Z,3.03
2023-04-03T16:51:04.909Z,3.63
2023-04-03T16:53:31.482Z,3.58
2023-04-03T16:55:59.274Z,2.60
2023-04-03T16:58:26.103Z,2.63
2023-04-03T17:00:54.491Z,2.63
2023-04-03T17:03:21.162Z,2.72
2023-04-03T17:05:48.886Z,2.85
2023-04-03T17:08:17.239Z,2.85
2023-04-03T17:10:43.681Z,3.65
2023-04-03T17:13:10.137Z,3.80
2023-04-03T17:15:37.048Z,3.28
2023-04-03T17:18:03.660Z,4.30
2023-04-03T17:20:30.752Z,3.10
2023-04-03T17:22:57.258Z,3.03
2023-04-03T17:25:23.652Z,3.65
2023-04-03T17:27:50.317Z,3.38
2023-04-03T17:30:17.518Z,2.85
2023-04-03T17:32:43.932Z,3.28
2023-04-03T17:35:11.698Z,2.28
2023-04-03T17:37:39.362Z,2.70
2023-04-03T17:40:06.636Z,2.50
2023-04-03T17:42:33.477Z,2.80
2023-04-03T17:45:01.039Z,2.83
2023-04-03T17:47:27.590Z,2.78
2023-04-03T17:49:54.055Z,2.45
2023-04-03T17:52:20.520Z,3.10
2023-04-03T17:54:46.915Z,3.63
2023-04-03T17:57:13.335Z,2.83
2023-04-03T17:59:39.868Z,4.13
2023-04-03T18:02:06.471Z,3.88
2023-04-03T18:04:32.965Z,2.90
2023-04-03T18:06:59.464Z,2.70
2023-04-03T18:09:32.204Z,3.05
2023-04-03T18:12:02.317Z,2.67
2023-04-03T18:14:29.183Z,3.58
2023-04-03T18:16:57.445Z,3.70
2023-04-03T18:19:24.415Z,3.08
2023-04-03T18:21:57.471Z,3.58
2023-04-03T18:24:25.821Z,2.90
2023-04-03T18:26:58.423Z,3.30
2023-04-03T18:29:25.226Z,3.80
2023-04-03T18:31:55.697Z,3.50
2023-04-03T18:34:22.416Z,3.95
2023-04-03T18:36:49.177Z,3.47
2023-04-03T18:39:15.794Z,3.17
2023-04-03T18:41:42.807Z,2.88
2023-04-03T18:44:14.137Z,3.72
2023-04-03T18:49:08.090Z,3.10
2023-04-03T18:51:34.611Z,3.80
2023-04-03T18:54:01.808Z,3.28
2023-04-03T18:56:29.080Z,2.80
2023-04-03T18:58:55.579Z,3.40
2023-04-03T19:01:22.244Z,3.13
2023-04-03T19:03:48.957Z,3.30
2023-04-03T19:06:15.714Z,2.97
2023-04-03T19:08:42.392Z,3.60
2023-04-03T19:11:08.880Z,3.33
2023-04-03T19:13:35.498Z,2.97
2023-04-03T19:16:02.408Z,3.17
2023-04-03T19:18:29.623Z,3.35
2023-04-03T19:20:57.377Z,3.00
2023-04-03T19:23:24.658Z,2.95
2023-04-03T19:26:06.008Z,3.33
2023-04-03T19:28:32.719Z,3.30
2023-04-03T19:31:00.391Z,2.60
2023-04-03T19:33:27.528Z,3.85
2023-04-03T19:35:54.322Z,2.72
2023-04-03T19:38:21.093Z,3.30
2023-04-03T19:40:47.604Z,2.90
2023-04-03T19:43:16.187Z,3.20
2023-04-03T19:45:43.799Z,2.85
2023-04-03T19:48:10.366Z,2.72
2023-04-03T19:50:36.840Z,3.00
2023-04-03T19:53:03.724Z,3.28
2023-04-03T19:55:31.323Z,3.72
2023-04-03T19:57:59.399Z,6.18
2023-04-03T20:00:26.665Z,3.88
2023-04-03T20:02:53.197Z,4.07
2023-04-03T20:05:20.837Z,5.30
2023-04-03T20:07:47.888Z,5.55
2023-04-03T20:10:16.175Z,3.83
2023-04-03T20:12:42.919Z,3.70
2023-04-03T20:15:10.252Z,3.30
2023-04-03T20:17:37.414Z,4.03
2023-04-03T20:20:04.785Z,2.97
2023-04-03T20:22:32.724Z,2.78
2023-04-03T20:25:05.918Z,2.75
2023-04-03T20:27:34.584Z,2.75
2023-04-03T20:30:04.024Z,2.50
2023-04-03T20:32:31.297Z,2.65
2023-04-03T20:35:04.293Z,2.80
2023-04-03T20:37:31.739Z,2.35
2023-04-03T20:39:58.190Z,2.38
2023-04-03T20:42:24.627Z,2.25
2023-04-03T20:44:51.032Z,2.80
2023-04-03T20:47:17.556Z,2.50
2023-04-03T20:49:46.130Z,2.30
2023-04-03T20:52:12.565Z,2.33
2023-04-03T20:54:40.007Z,2.60
2023-04-03T20:57:06.608Z,2.00
2023-04-03T20:59:34.045Z,2.28
2023-04-03T21:02:01.080Z,2.67
2023-04-03T21:04:41.428Z,2.65
2023-04-03T21:07:46.587Z,2.60
2023-04-03T21:10:50.731Z,2.80
2023-04-03T21:13:54.773Z,2.67
2023-04-03T21:16:21.548Z,2.50
2023-04-03T21:19:15.720Z,2.47
2023-04-03T21:21:45.566Z,2.72
2023-04-03T21:24:13.743Z,2.75
2023-04-03T21:26:41.566Z,3.30
2023-04-03T21:29:08.704Z,2.63
2023-04-03T21:31:58.535Z,3.65
2023-04-03T21:34:27.533Z,2.60
2023-04-03T21:37:04.729Z,2.63
2023-04-03T21:39:31.599Z,2.80
2023-04-03T21:41:58.038Z,2.50
2023-04-03T21:44:28.290Z,2.85
2023-04-03T21:46:54.893Z,2.90
2023-04-03T21:49:22.607Z,3.30
2023-04-03T21:51:51.314Z,2.97
2023-04-03T21:54:18.248Z,2.50
2023-04-03T21:56:44.680Z,3.10
2023-04-03T21:59:11.264Z,2.55
2023-04-03T22:01:37.875Z,2.83
2023-04-03T22:04:04.346Z,2.70
2023-04-03T22:06:31.143Z,3.00
2023-04-03T22:08:57.724Z,2.40
2023-04-03T22:11:27.443Z,2.42
2023-04-03T22:13:55.296Z,2.67
2023-04-03T22:16:25.033Z,2.53
2023-04-03T22:18:52.684Z,2.45
2023-04-03T22:21:20.284Z,2.38
2023-04-03T22:23:46.732Z,2.47
2023-04-03T22:26:14.170Z,2.35
2023-04-03T22:28:42.621Z,2.85
2023-04-03T22:31:10.760Z,2.88
2023-04-03T22:33:38.161Z,3.17
2023-04-03T22:36:09.007Z,3.17
2023-04-03T22:38:36.975Z,2.25
2023-04-03T22:41:05.694Z,2.70
2023-04-03T22:43:33.967Z,2.40
2023-04-03T22:46:01.311Z,3.00
2023-04-03T22:48:28.194Z,3.00
2023-04-03T22:50:55.425Z,2.45
2023-04-03T22:53:22.037Z,2.67
2023-04-03T22:55:58.812Z,2.60
2023-04-03T22:58:26.484Z,2.28
2023-04-03T23:01:10.267Z,2.60
2023-04-03T23:03:38.415Z,2.53
2023-04-03T23:06:06.222Z,2.67
2023-04-03T23:08:34.993Z,2.78
2023-04-03T23:11:02.151Z,2.40
2023-04-03T23:13:28.724Z,2.90
2023-04-03T23:15:59.320Z,2.88
2023-04-03T23:18:29.337Z,2.20
2023-04-03T23:20:56.965Z,2.15
2023-04-03T23:23:24.443Z,2.53
2023-04-03T23:25:54.999Z,2.70
2023-04-03T23:28:21.632Z,2.38
2023-04-03T23:30:48.856Z,3.10
2023-04-03T23:33:15.452Z,2.65
2023-04-03T23:35:44.122Z,2.55
2023-04-03T23:38:10.728Z,3.00
2023-04-03T23:40:37.212Z,2.53
2023-04-03T23:43:03.786Z,3.33
2023-04-03T23:45:30.214Z,2.55
2023-04-03T23:47:56.640Z,2.60
2023-04-03T23:50:23.229Z,2.50
2023-04-03T23:52:49.667Z,2.80
2023-04-03T23:55:16.104Z,2.83
2023-04-03T23:57:42.823Z,3.15
